sensor_id;sensor_type;location;lat;lon;timestamp;temperature;humidity
27559;DHT22;15002;52.028;5.670;2022-09-21T00:00:25;14.50;99.90
27559;DHT22;15002;52.028;5.670;2022-09-21T00:02:54;14.40;99.90
27559;DHT22;15002;52.028;5.670;2022-09-21T00:05:19;14.30;99.90
27559;DHT22;15002;52.028;5.670;2022-09-21T00:07:45;14.40;99.90
27559;DHT22;15002;52.028;5.670;2022-09-21T00:10:11;14.40;99.90
27559;DHT22;15002;52.028;5.670;2022-09-21T00:12:37;14.40;99.90
27559;DHT22;15002;52.028;5.670;2022-09-21T00:15:07;14.40;99.90
27559;DHT22;15002;52.028;5.670;2022-09-21T00:17:33;14.40;99.90
27559;DHT22;15002;52.028;5.670;2022-09-21T00:19:59;14.30;99.90
27559;DHT22;15002;52.028;5.670;2022-09-21T00:22:30;14.30;99.90
27559;DHT22;15002;52.028;5.670;2022-09-21T00:24:56;14.40;99.90
27559;DHT22;15002;52.028;5.670;2022-09-21T00:27:22;14.40;99.90
27559;DHT22;15002;52.028;5.670;2022-09-21T00:29:58;14.30;99.90
27559;DHT22;15002;52.028;5.670;2022-09-21T00:32:26;14.30;99.90
27559;DHT22;15002;52.028;5.670;2022-09-21T00:34:52;14.20;99.90
27559;DHT22;15002;52.028;5.670;2022-09-21T00:37:18;14.20;99.90
27559;DHT22;15002;52.028;5.670;2022-09-21T00:39:44;14.20;99.90
27559;DHT22;15002;52.028;5.670;2022-09-21T00:42:25;14.10;99.90
27559;DHT22;15002;52.028;5.670;2022-09-21T00:44:52;14.10;99.90
27559;DHT22;15002;52.028;5.670;2022-09-21T00:49:50;14.10;99.90
27559;DHT22;15002;52.028;5.670;2022-09-21T00:52:19;14.00;99.90
27559;DHT22;15002;52.028;5.670;2022-09-21T00:54:51;14.10;99.90
27559;DHT22;15002;52.028;5.670;2022-09-21T00:57:18;14.10;99.90
27559;DHT22;15002;52.028;5.670;2022-09-21T00:59:47;14.00;99.90
27559;DHT22;15002;52.028;5.670;2022-09-21T01:02:16;14.00;99.90
27559;DHT22;15002;52.028;5.670;2022-09-21T01:04:42;14.00;99.90
27559;DHT22;15002;52.028;5.670;2022-09-21T01:07:11;14.00;99.90
27559;DHT22;15002;52.028;5.670;2022-09-21T01:09:40;14.00;99.90
27559;DHT22;15002;52.028;5.670;2022-09-21T01:22:55;13.80;99.90
27559;DHT22;15002;52.028;5.670;2022-09-21T01:28:34;13.60;99.90
27559;DHT22;15002;52.028;5.670;2022-09-21T01:31:08;13.50;99.90
27559;DHT22;15002;52.028;5.670;2022-09-21T01:33:45;13.40;99.90
27559;DHT22;15002;52.028;5.670;2022-09-21T01:36:15;13.30;99.90
27559;DHT22;15002;52.028;5.670;2022-09-21T01:38:45;13.40;99.90
27559;DHT22;15002;52.028;5.670;2022-09-21T01:41:16;13.30;99.90
27559;DHT22;15002;52.028;5.670;2022-09-21T01:43:48;13.40;99.90
27559;DHT22;15002;52.028;5.670;2022-09-21T01:46:20;13.40;99.90
27559;DHT22;15002;52.028;5.670;2022-09-21T01:48:51;13.40;99.90
27559;DHT22;15002;52.028;5.670;2022-09-21T01:51:19;13.40;99.90
27559;DHT22;15002;52.028;5.670;2022-09-21T01:53:54;13.30;99.90
27559;DHT22;15002;52.028;5.670;2022-09-21T01:56:26;13.30;99.90
27559;DHT22;15002;52.028;5.670;2022-09-21T01:59:08;13.20;99.90
27559;DHT22;15002;52.028;5.670;2022-09-21T02:01:40;13.20;99.90
27559;DHT22;15002;52.028;5.670;2022-09-21T02:04:10;13.10;99.90
27559;DHT22;15002;52.028;5.670;2022-09-21T02:06:38;13.00;99.90
27559;DHT22;15002;52.028;5.670;2022-09-21T02:09:05;13.00;99.90
27559;DHT22;15002;52.028;5.670;2022-09-21T02:11:31;12.80;99.90
27559;DHT22;15002;52.028;5.670;2022-09-21T02:13:57;12.80;99.90
27559;DHT22;15002;52.028;5.670;2022-09-21T02:16:32;12.80;99.90
27559;DHT22;15002;52.028;5.670;2022-09-21T02:19:25;12.80;99.90
27559;DHT22;15002;52.028;5.670;2022-09-21T02:24:41;12.80;99.90
27559;DHT22;15002;52.028;5.670;2022-09-21T02:27:29;12.80;99.90
27559;DHT22;15002;52.028;5.670;2022-09-21T02:43:33;12.50;99.90
27559;DHT22;15002;52.028;5.670;2022-09-21T02:46:04;12.40;99.90
27559;DHT22;15002;52.028;5.670;2022-09-21T02:48:42;12.40;99.90
27559;DHT22;15002;52.028;5.670;2022-09-21T02:51:13;12.30;99.90
27559;DHT22;15002;52.028;5.670;2022-09-21T02:53:41;12.30;99.90
27559;DHT22;15002;52.028;5.670;2022-09-21T02:56:08;12.30;99.90
27559;DHT22;15002;52.028;5.670;2022-09-21T02:58:40;12.30;99.90
27559;DHT22;15002;52.028;5.670;2022-09-21T03:01:10;12.30;99.90
27559;DHT22;15002;52.028;5.670;2022-09-21T03:03:36;12.40;99.90
27559;DHT22;15002;52.028;5.670;2022-09-21T03:06:02;12.30;99.90
27559;DHT22;15002;52.028;5.670;2022-09-21T03:08:28;12.30;99.90
27559;DHT22;15002;52.028;5.670;2022-09-21T03:10:55;12.10;99.90
27559;DHT22;15002;52.028;5.670;2022-09-21T03:13:22;12.10;99.90
27559;DHT22;15002;52.028;5.670;2022-09-21T03:15:48;12.10;99.90
27559;DHT22;15002;52.028;5.670;2022-09-21T03:18:13;12.10;99.90
27559;DHT22;15002;52.028;5.670;2022-09-21T03:20:42;12.10;99.90
27559;DHT22;15002;52.028;5.670;2022-09-21T03:23:12;12.00;99.90
27559;DHT22;15002;52.028;5.670;2022-09-21T03:25:38;12.00;99.90
27559;DHT22;15002;52.028;5.670;2022-09-21T03:28:03;12.00;99.90
27559;DHT22;15002;52.028;5.670;2022-09-21T03:30:29;12.00;99.90
27559;DHT22;15002;52.028;5.670;2022-09-21T03:32:56;12.00;99.90
27559;DHT22;15002;52.028;5.670;2022-09-21T03:35:23;12.00;99.90
27559;DHT22;15002;52.028;5.670;2022-09-21T03:37:51;12.00;99.90
27559;DHT22;15002;52.028;5.670;2022-09-21T03:40:17;12.00;99.90
27559;DHT22;15002;52.028;5.670;2022-09-21T03:42:44;11.90;99.90
27559;DHT22;15002;52.028;5.670;2022-09-21T03:45:11;11.80;99.90
27559;DHT22;15002;52.028;5.670;2022-09-21T03:47:38;11.70;99.90
27559;DHT22;15002;52.028;5.670;2022-09-21T03:50:05;11.80;99.90
27559;DHT22;15002;52.028;5.670;2022-09-21T03:52:31;11.70;99.90
27559;DHT22;15002;52.028;5.670;2022-09-21T03:54:57;11.90;99.90
27559;DHT22;15002;52.028;5.670;2022-09-21T03:57:22;11.90;99.90
27559;DHT22;15002;52.028;5.670;2022-09-21T03:59:48;11.80;99.90
27559;DHT22;15002;52.028;5.670;2022-09-21T04:02:14;11.80;99.90
27559;DHT22;15002;52.028;5.670;2022-09-21T04:04:40;11.60;99.90
27559;DHT22;15002;52.028;5.670;2022-09-21T04:07:06;11.70;99.90
27559;DHT22;15002;52.028;5.670;2022-09-21T04:09:32;11.60;99.90
27559;DHT22;15002;52.028;5.670;2022-09-21T04:11:57;11.60;99.90
27559;DHT22;15002;52.028;5.670;2022-09-21T04:14:23;11.60;99.90
27559;DHT22;15002;52.028;5.670;2022-09-21T04:16:49;11.50;99.90
27559;DHT22;15002;52.028;5.670;2022-09-21T04:19:16;11.40;99.90
27559;DHT22;15002;52.028;5.670;2022-09-21T04:21:42;11.50;99.90
27559;DHT22;15002;52.028;5.670;2022-09-21T04:24:08;11.50;99.90
27559;DHT22;15002;52.028;5.670;2022-09-21T04:26:34;11.40;99.90
27559;DHT22;15002;52.028;5.670;2022-09-21T04:29:01;11.50;99.90
27559;DHT22;15002;52.028;5.670;2022-09-21T04:31:28;11.50;99.90
27559;DHT22;15002;52.028;5.670;2022-09-21T04:33:55;11.50;99.90
27559;DHT22;15002;52.028;5.670;2022-09-21T04:36:22;11.40;99.90
27559;DHT22;15002;52.028;5.670;2022-09-21T04:38:48;11.30;99.90
27559;DHT22;15002;52.028;5.670;2022-09-21T04:41:14;11.20;99.90
27559;DHT22;15002;52.028;5.670;2022-09-21T04:43:42;11.30;99.90
27559;DHT22;15002;52.028;5.670;2022-09-21T04:46:10;11.30;99.90
27559;DHT22;15002;52.028;5.670;2022-09-21T04:48:37;11.30;99.90
27559;DHT22;15002;52.028;5.670;2022-09-21T04:51:03;11.20;99.90
27559;DHT22;15002;52.028;5.670;2022-09-21T04:53:31;11.30;99.90
27559;DHT22;15002;52.028;5.670;2022-09-21T04:55:57;11.30;99.90
27559;DHT22;15002;52.028;5.670;2022-09-21T04:58:23;11.20;99.90
27559;DHT22;15002;52.028;5.670;2022-09-21T05:00:50;11.20;99.90
27559;DHT22;15002;52.028;5.670;2022-09-21T05:03:17;11.20;99.90
27559;DHT22;15002;52.028;5.670;2022-09-21T05:05:50;11.20;99.90
27559;DHT22;15002;52.028;5.670;2022-09-21T05:08:16;11.00;99.90
27559;DHT22;15002;52.028;5.670;2022-09-21T05:10:43;10.90;99.90
27559;DHT22;15002;52.028;5.670;2022-09-21T05:13:09;11.00;99.90
27559;DHT22;15002;52.028;5.670;2022-09-21T05:15:38;11.00;99.90
27559;DHT22;15002;52.028;5.670;2022-09-21T05:18:04;11.10;99.90
27559;DHT22;15002;52.028;5.670;2022-09-21T05:20:30;11.10;99.90
27559;DHT22;15002;52.028;5.670;2022-09-21T05:22:58;11.00;99.90
27559;DHT22;15002;52.028;5.670;2022-09-21T05:25:26;11.10;99.90
27559;DHT22;15002;52.028;5.670;2022-09-21T05:27:51;11.10;99.90
27559;DHT22;15002;52.028;5.670;2022-09-21T05:30:17;11.10;99.90
27559;DHT22;15002;52.028;5.670;2022-09-21T05:33:00;11.20;99.90
27559;DHT22;15002;52.028;5.670;2022-09-21T05:35:39;11.10;99.90
27559;DHT22;15002;52.028;5.670;2022-09-21T05:38:15;11.00;99.90
27559;DHT22;15002;52.028;5.670;2022-09-21T05:40:42;11.10;99.90
27559;DHT22;15002;52.028;5.670;2022-09-21T05:43:09;11.10;99.90
27559;DHT22;15002;52.028;5.670;2022-09-21T05:45:37;11.10;99.90
27559;DHT22;15002;52.028;5.670;2022-09-21T05:48:28;11.00;99.90
27559;DHT22;15002;52.028;5.670;2022-09-21T05:53:49;11.20;99.90
27559;DHT22;15002;52.028;5.670;2022-09-21T05:59:26;11.20;99.90
27559;DHT22;15002;52.028;5.670;2022-09-21T06:04:25;11.20;99.90
27559;DHT22;15002;52.028;5.670;2022-09-21T06:06:51;11.30;99.90
27559;DHT22;15002;52.028;5.670;2022-09-21T06:09:16;11.30;99.90
27559;DHT22;15002;52.028;5.670;2022-09-21T06:11:42;11.40;99.90
27559;DHT22;15002;52.028;5.670;2022-09-21T06:14:08;11.40;99.90
27559;DHT22;15002;52.028;5.670;2022-09-21T06:16:41;11.30;99.90
27559;DHT22;15002;52.028;5.670;2022-09-21T06:19:10;11.40;99.90
27559;DHT22;15002;52.028;5.670;2022-09-21T06:21:36;11.40;99.90
27559;DHT22;15002;52.028;5.670;2022-09-21T06:24:02;11.50;99.90
27559;DHT22;15002;52.028;5.670;2022-09-21T06:26:27;11.70;99.90
27559;DHT22;15002;52.028;5.670;2022-09-21T06:28:53;12.10;99.90
27559;DHT22;15002;52.028;5.670;2022-09-21T06:31:19;12.30;99.90
27559;DHT22;15002;52.028;5.670;2022-09-21T06:33:44;12.40;99.90
27559;DHT22;15002;52.028;5.670;2022-09-21T06:36:10;12.40;99.90
27559;DHT22;15002;52.028;5.670;2022-09-21T06:38:36;12.40;99.90
27559;DHT22;15002;52.028;5.670;2022-09-21T06:41:02;12.40;99.90
27559;DHT22;15002;52.028;5.670;2022-09-21T06:43:28;12.70;99.90
27559;DHT22;15002;52.028;5.670;2022-09-21T06:45:56;13.10;99.90
27559;DHT22;15002;52.028;5.670;2022-09-21T06:48:22;13.30;99.90
27559;DHT22;15002;52.028;5.670;2022-09-21T06:50:49;13.30;99.90
27559;DHT22;15002;52.028;5.670;2022-09-21T06:53:15;13.60;99.90
27559;DHT22;15002;52.028;5.670;2022-09-21T06:55:42;13.90;99.90
27559;DHT22;15002;52.028;5.670;2022-09-21T06:58:08;14.30;99.90
27559;DHT22;15002;52.028;5.670;2022-09-21T07:00:33;14.90;99.90
27559;DHT22;15002;52.028;5.670;2022-09-21T07:02:59;15.30;99.90
27559;DHT22;15002;52.028;5.670;2022-09-21T07:05:25;15.80;99.90
27559;DHT22;15002;52.028;5.670;2022-09-21T07:07:56;16.20;99.90
27559;DHT22;15002;52.028;5.670;2022-09-21T07:10:22;16.40;99.90
27559;DHT22;15002;52.028;5.670;2022-09-21T07:12:48;16.80;99.90
27559;DHT22;15002;52.028;5.670;2022-09-21T07:15:16;17.20;99.90
27559;DHT22;15002;52.028;5.670;2022-09-21T07:17:41;17.60;99.70
27559;DHT22;15002;52.028;5.670;2022-09-21T07:20:08;17.90;99.00
27559;DHT22;15002;52.028;5.670;2022-09-21T07:22:34;18.30;98.20
27559;DHT22;15002;52.028;5.670;2022-09-21T07:25:00;18.50;97.80
27559;DHT22;15002;52.028;5.670;2022-09-21T07:27:27;18.70;97.30
27559;DHT22;15002;52.028;5.670;2022-09-21T07:29:53;18.80;97.10
27559;DHT22;15002;52.028;5.670;2022-09-21T07:32:19;19.00;96.90
27559;DHT22;15002;52.028;5.670;2022-09-21T07:34:45;19.20;96.50
27559;DHT22;15002;52.028;5.670;2022-09-21T07:37:12;19.30;96.30
27559;DHT22;15002;52.028;5.670;2022-09-21T07:39:37;19.40;96.00
27559;DHT22;15002;52.028;5.670;2022-09-21T07:42:04;19.60;95.80
27559;DHT22;15002;52.028;5.670;2022-09-21T07:44:30;19.50;95.40
27559;DHT22;15002;52.028;5.670;2022-09-21T07:46:55;19.50;95.20
27559;DHT22;15002;52.028;5.670;2022-09-21T07:49:21;19.90;95.00
27559;DHT22;15002;52.028;5.670;2022-09-21T07:51:47;19.90;94.90
27559;DHT22;15002;52.028;5.670;2022-09-21T07:54:13;20.10;94.70
27559;DHT22;15002;52.028;5.670;2022-09-21T07:56:40;20.30;93.80
27559;DHT22;15002;52.028;5.670;2022-09-21T07:59:08;20.30;93.50
27559;DHT22;15002;52.028;5.670;2022-09-21T08:01:40;20.30;93.70
27559;DHT22;15002;52.028;5.670;2022-09-21T08:04:08;20.40;93.70
27559;DHT22;15002;52.028;5.670;2022-09-21T08:06:35;20.30;93.10
27559;DHT22;15002;52.028;5.670;2022-09-21T08:09:04;20.30;93.80
27559;DHT22;15002;52.028;5.670;2022-09-21T08:11:31;20.30;94.00
27559;DHT22;15002;52.028;5.670;2022-09-21T08:14:00;20.40;93.70
27559;DHT22;15002;52.028;5.670;2022-09-21T08:16:26;20.40;93.50
27559;DHT22;15002;52.028;5.670;2022-09-21T08:18:53;20.40;93.50
27559;DHT22;15002;52.028;5.670;2022-09-21T08:21:19;20.00;93.20
27559;DHT22;15002;52.028;5.670;2022-09-21T08:23:46;19.60;94.10
27559;DHT22;15002;52.028;5.670;2022-09-21T08:26:15;19.60;94.60
27559;DHT22;15002;52.028;5.670;2022-09-21T08:28:45;19.90;94.60
27559;DHT22;15002;52.028;5.670;2022-09-21T08:31:14;20.10;94.20
27559;DHT22;15002;52.028;5.670;2022-09-21T08:33:42;19.80;94.20
27559;DHT22;15002;52.028;5.670;2022-09-21T08:36:08;19.80;94.80
27559;DHT22;15002;52.028;5.670;2022-09-21T08:38:35;20.10;93.90
27559;DHT22;15002;52.028;5.670;2022-09-21T08:41:22;19.70;94.10
27559;DHT22;15002;52.028;5.670;2022-09-21T08:43:59;20.10;94.50
27559;DHT22;15002;52.028;5.670;2022-09-21T08:46:28;20.10;94.10
27559;DHT22;15002;52.028;5.670;2022-09-21T08:51:24;20.00;93.50
27559;DHT22;15002;52.028;5.670;2022-09-21T08:53:56;20.40;93.30
27559;DHT22;15002;52.028;5.670;2022-09-21T08:56:24;20.20;93.10
27559;DHT22;15002;52.028;5.670;2022-09-21T08:58:50;19.90;93.40
27559;DHT22;15002;52.028;5.670;2022-09-21T09:06:52;20.70;93.30
27559;DHT22;15002;52.028;5.670;2022-09-21T09:12:15;20.60;92.00
27559;DHT22;15002;52.028;5.670;2022-09-21T09:17:43;21.00;91.40
27559;DHT22;15002;52.028;5.670;2022-09-21T09:20:12;21.30;91.80
27559;DHT22;15002;52.028;5.670;2022-09-21T09:22:46;21.00;90.30
27559;DHT22;15002;52.028;5.670;2022-09-21T09:25:18;21.20;90.80
27559;DHT22;15002;52.028;5.670;2022-09-21T09:27:46;21.10;90.60
27559;DHT22;15002;52.028;5.670;2022-09-21T09:30:18;21.00;89.90
27559;DHT22;15002;52.028;5.670;2022-09-21T09:33:19;21.10;89.40
27559;DHT22;15002;52.028;5.670;2022-09-21T09:35:47;21.20;90.60
27559;DHT22;15002;52.028;5.670;2022-09-21T09:38:35;21.40;88.80
27559;DHT22;15002;52.028;5.670;2022-09-21T09:49:38;21.10;89.10
27559;DHT22;15002;52.028;5.670;2022-09-21T09:52:10;21.40;89.70
27559;DHT22;15002;52.028;5.670;2022-09-21T09:54:37;21.70;89.70
27559;DHT22;15002;52.028;5.670;2022-09-21T09:57:04;22.10;86.40
27559;DHT22;15002;52.028;5.670;2022-09-21T09:59:38;22.20;85.00
27559;DHT22;15002;52.028;5.670;2022-09-21T10:02:27;22.10;86.70
27559;DHT22;15002;52.028;5.670;2022-09-21T10:05:01;22.00;85.70
27559;DHT22;15002;52.028;5.670;2022-09-21T10:07:48;21.90;84.80
27559;DHT22;15002;52.028;5.670;2022-09-21T10:10:22;21.60;84.60
27559;DHT22;15002;52.028;5.670;2022-09-21T10:12:48;21.50;84.10
27559;DHT22;15002;52.028;5.670;2022-09-21T10:15:16;21.20;84.70
27559;DHT22;15002;52.028;5.670;2022-09-21T10:17:44;21.00;84.80
27559;DHT22;15002;52.028;5.670;2022-09-21T10:20:17;20.70;84.50
27559;DHT22;15002;52.028;5.670;2022-09-21T10:22:47;20.50;85.80
27559;DHT22;15002;52.028;5.670;2022-09-21T10:25:18;20.10;89.10
27559;DHT22;15002;52.028;5.670;2022-09-21T10:27:48;20.20;89.30
27559;DHT22;15002;52.028;5.670;2022-09-21T10:32:57;20.00;88.20
27559;DHT22;15002;52.028;5.670;2022-09-21T10:35:24;19.90;90.00
27559;DHT22;15002;52.028;5.670;2022-09-21T10:38:15;19.90;90.20
27559;DHT22;15002;52.028;5.670;2022-09-21T10:40:42;19.70;90.10
27559;DHT22;15002;52.028;5.670;2022-09-21T10:43:28;20.00;90.50
27559;DHT22;15002;52.028;5.670;2022-09-21T10:45:57;19.80;90.10
27559;DHT22;15002;52.028;5.670;2022-09-21T10:48:24;19.70;90.20
27559;DHT22;15002;52.028;5.670;2022-09-21T10:50:52;19.70;89.80
27559;DHT22;15002;52.028;5.670;2022-09-21T10:53:27;19.70;88.70
27559;DHT22;15002;52.028;5.670;2022-09-21T10:56:03;19.70;88.50
27559;DHT22;15002;52.028;5.670;2022-09-21T10:58:30;19.80;90.20
27559;DHT22;15002;52.028;5.670;2022-09-21T11:01:12;19.50;91.00
27559;DHT22;15002;52.028;5.670;2022-09-21T11:03:59;19.70;90.70
27559;DHT22;15002;52.028;5.670;2022-09-21T11:06:30;19.40;89.80
27559;DHT22;15002;52.028;5.670;2022-09-21T11:09:04;19.40;90.40
27559;DHT22;15002;52.028;5.670;2022-09-21T11:17:00;19.50;89.70
27559;DHT22;15002;52.028;5.670;2022-09-21T11:19:37;19.40;88.70
27559;DHT22;15002;52.028;5.670;2022-09-21T11:27:24;19.30;90.50
27559;DHT22;15002;52.028;5.670;2022-09-21T11:30:14;19.40;91.20
27559;DHT22;15002;52.028;5.670;2022-09-21T11:38:04;19.30;91.70
27559;DHT22;15002;52.028;5.670;2022-09-21T12:00:14;19.50;91.30
27559;DHT22;15002;52.028;5.670;2022-09-21T12:08:35;20.00;87.30
27559;DHT22;15002;52.028;5.670;2022-09-21T12:19:34;20.30;84.50
27559;DHT22;15002;52.028;5.670;2022-09-21T12:22:07;20.40;87.20
27559;DHT22;15002;52.028;5.670;2022-09-21T12:24:44;20.20;88.00
27559;DHT22;15002;52.028;5.670;2022-09-21T12:30:13;20.20;85.80
27559;DHT22;15002;52.028;5.670;2022-09-21T12:35:27;20.50;83.90
27559;DHT22;15002;52.028;5.670;2022-09-21T12:43:33;20.40;85.20
27559;DHT22;15002;52.028;5.670;2022-09-21T12:48:41;20.30;84.60
27559;DHT22;15002;52.028;5.670;2022-09-21T12:53:38;20.30;83.30
27559;DHT22;15002;52.028;5.670;2022-09-21T12:56:11;20.40;84.40
27559;DHT22;15002;52.028;5.670;2022-09-21T13:09:39;20.40;83.00
27559;DHT22;15002;52.028;5.670;2022-09-21T13:12:14;20.70;82.50
27559;DHT22;15002;52.028;5.670;2022-09-21T13:14:47;20.80;81.70
27559;DHT22;15002;52.028;5.670;2022-09-21T13:17:28;21.00;80.50
27559;DHT22;15002;52.028;5.670;2022-09-21T13:20:04;21.00;81.00
27559;DHT22;15002;52.028;5.670;2022-09-21T13:22:33;20.80;81.40
27559;DHT22;15002;52.028;5.670;2022-09-21T13:30:38;20.90;79.90
27559;DHT22;15002;52.028;5.670;2022-09-21T13:38:33;20.80;80.10
27559;DHT22;15002;52.028;5.670;2022-09-21T13:49:25;21.00;80.60
27559;DHT22;15002;52.028;5.670;2022-09-21T13:52:03;20.80;78.10
27559;DHT22;15002;52.028;5.670;2022-09-21T13:54:49;20.50;79.50
27559;DHT22;15002;52.028;5.670;2022-09-21T14:02:38;20.50;79.90
27559;DHT22;15002;52.028;5.670;2022-09-21T14:07:35;20.80;78.60
27559;DHT22;15002;52.028;5.670;2022-09-21T14:10:05;20.60;79.80
27559;DHT22;15002;52.028;5.670;2022-09-21T14:12:37;20.50;79.10
27559;DHT22;15002;52.028;5.670;2022-09-21T14:17:44;20.40;81.00
27559;DHT22;15002;52.028;5.670;2022-09-21T14:20:30;20.40;79.60
27559;DHT22;15002;52.028;5.670;2022-09-21T14:28:37;20.50;81.90
27559;DHT22;15002;52.028;5.670;2022-09-21T14:31:28;20.40;79.90
27559;DHT22;15002;52.028;5.670;2022-09-21T14:33:57;20.60;81.00
27559;DHT22;15002;52.028;5.670;2022-09-21T14:36:32;20.80;81.20
27559;DHT22;15002;52.028;5.670;2022-09-21T14:39:04;20.80;82.20
27559;DHT22;15002;52.028;5.670;2022-09-21T14:41:39;20.80;81.60
27559;DHT22;15002;52.028;5.670;2022-09-21T14:44:06;20.30;82.70
27559;DHT22;15002;52.028;5.670;2022-09-21T14:57:58;19.80;82.80
27559;DHT22;15002;52.028;5.670;2022-09-21T15:00:43;19.80;83.70
27559;DHT22;15002;52.028;5.670;2022-09-21T15:06:37;20.00;84.00
27559;DHT22;15002;52.028;5.670;2022-09-21T15:12:20;20.00;82.30
27559;DHT22;15002;52.028;5.670;2022-09-21T15:15:16;19.90;82.00
27559;DHT22;15002;52.028;5.670;2022-09-21T15:17:55;19.90;84.30
27559;DHT22;15002;52.028;5.670;2022-09-21T15:20:25;19.90;81.70
27559;DHT22;15002;52.028;5.670;2022-09-21T15:22:58;19.80;82.30
27559;DHT22;15002;52.028;5.670;2022-09-21T15:25:26;20.00;81.30
27559;DHT22;15002;52.028;5.670;2022-09-21T15:27:53;20.00;79.80
27559;DHT22;15002;52.028;5.670;2022-09-21T15:30:22;20.00;80.90
27559;DHT22;15002;52.028;5.670;2022-09-21T15:32:54;20.00;82.60
27559;DHT22;15002;52.028;5.670;2022-09-21T15:35:31;20.20;82.30
27559;DHT22;15002;52.028;5.670;2022-09-21T15:37:58;20.40;80.60
27559;DHT22;15002;52.028;5.670;2022-09-21T15:40:30;20.50;80.40
27559;DHT22;15002;52.028;5.670;2022-09-21T15:43:16;20.40;80.60
27559;DHT22;15002;52.028;5.670;2022-09-21T15:45:54;20.30;81.10
27559;DHT22;15002;52.028;5.670;2022-09-21T15:48:23;20.10;81.80
27559;DHT22;15002;52.028;5.670;2022-09-21T15:50:55;20.10;81.80
27559;DHT22;15002;52.028;5.670;2022-09-21T15:53:26;20.10;80.70
27559;DHT22;15002;52.028;5.670;2022-09-21T15:55:55;20.30;79.30
27559;DHT22;15002;52.028;5.670;2022-09-21T15:58:34;20.10;79.60
27559;DHT22;15002;52.028;5.670;2022-09-21T16:01:08;20.00;81.50
27559;DHT22;15002;52.028;5.670;2022-09-21T16:03:35;19.90;81.10
27559;DHT22;15002;52.028;5.670;2022-09-21T16:06:26;20.10;78.90
27559;DHT22;15002;52.028;5.670;2022-09-21T16:08:52;19.90;81.10
27559;DHT22;15002;52.028;5.670;2022-09-21T16:11:38;19.80;80.20
27559;DHT22;15002;52.028;5.670;2022-09-21T16:20:13;19.90;80.80
27559;DHT22;15002;52.028;5.670;2022-09-21T16:22:44;19.90;80.60
27559;DHT22;15002;52.028;5.670;2022-09-21T16:25:36;19.80;79.60
27559;DHT22;15002;52.028;5.670;2022-09-21T16:30:50;19.80;82.40
27559;DHT22;15002;52.028;5.670;2022-09-21T16:33:35;19.90;81.10
27559;DHT22;15002;52.028;5.670;2022-09-21T16:39:02;19.60;80.80
27559;DHT22;15002;52.028;5.670;2022-09-21T16:41:40;19.40;83.30
27559;DHT22;15002;52.028;5.670;2022-09-21T16:44:15;19.40;83.20
27559;DHT22;15002;52.028;5.670;2022-09-21T16:46:46;19.50;82.80
27559;DHT22;15002;52.028;5.670;2022-09-21T16:49:15;19.50;82.90
27559;DHT22;15002;52.028;5.670;2022-09-21T16:51:45;19.40;82.60
27559;DHT22;15002;52.028;5.670;2022-09-21T16:54:11;19.40;82.80
27559;DHT22;15002;52.028;5.670;2022-09-21T16:56:38;19.40;85.10
27559;DHT22;15002;52.028;5.670;2022-09-21T16:59:12;19.30;84.40
27559;DHT22;15002;52.028;5.670;2022-09-21T17:01:41;19.30;86.80
27559;DHT22;15002;52.028;5.670;2022-09-21T17:04:08;19.20;86.70
27559;DHT22;15002;52.028;5.670;2022-09-21T17:06:38;19.20;89.70
27559;DHT22;15002;52.028;5.670;2022-09-21T17:09:31;19.10;88.00
27559;DHT22;15002;52.028;5.670;2022-09-21T17:11:58;19.10;87.90
27559;DHT22;15002;52.028;5.670;2022-09-21T17:14:29;19.10;90.00
27559;DHT22;15002;52.028;5.670;2022-09-21T17:17:04;19.00;88.80
27559;DHT22;15002;52.028;5.670;2022-09-21T17:19:32;19.00;90.00
27559;DHT22;15002;52.028;5.670;2022-09-21T17:21:59;18.90;91.20
27559;DHT22;15002;52.028;5.670;2022-09-21T17:24:24;18.80;91.50
27559;DHT22;15002;52.028;5.670;2022-09-21T17:26:51;18.70;92.20
27559;DHT22;15002;52.028;5.670;2022-09-21T17:31:48;18.60;93.60
27559;DHT22;15002;52.028;5.670;2022-09-21T17:34:26;18.40;93.70
27559;DHT22;15002;52.028;5.670;2022-09-21T17:36:53;18.30;94.20
27559;DHT22;15002;52.028;5.670;2022-09-21T17:39:20;18.10;94.00
27559;DHT22;15002;52.028;5.670;2022-09-21T17:42:02;18.00;94.10
27559;DHT22;15002;52.028;5.670;2022-09-21T17:44:36;18.00;93.90
27559;DHT22;15002;52.028;5.670;2022-09-21T17:47:25;17.90;94.10
27559;DHT22;15002;52.028;5.670;2022-09-21T17:49:58;17.90;94.10
27559;DHT22;15002;52.028;5.670;2022-09-21T17:52:27;17.80;94.30
27559;DHT22;15002;52.028;5.670;2022-09-21T17:55:12;17.80;94.40
27559;DHT22;15002;52.028;5.670;2022-09-21T18:00:21;17.50;95.30
27559;DHT22;15002;52.028;5.670;2022-09-21T18:02:47;17.50;95.70
27559;DHT22;15002;52.028;5.670;2022-09-21T18:05:26;17.40;95.80
27559;DHT22;15002;52.028;5.670;2022-09-21T18:07:52;17.20;96.10
27559;DHT22;15002;52.028;5.670;2022-09-21T18:10:19;17.00;96.50
27559;DHT22;15002;52.028;5.670;2022-09-21T18:13:17;17.00;96.50
27559;DHT22;15002;52.028;5.670;2022-09-21T18:21:02;16.80;96.80
27559;DHT22;15002;52.028;5.670;2022-09-21T18:26:10;16.70;97.20
27559;DHT22;15002;52.028;5.670;2022-09-21T18:28:45;16.70;97.20
27559;DHT22;15002;52.028;5.670;2022-09-21T18:34:44;16.50;97.60
27559;DHT22;15002;52.028;5.670;2022-09-21T18:46:00;16.20;97.60
27559;DHT22;15002;52.028;5.670;2022-09-21T18:48:54;16.10;97.80
27559;DHT22;15002;52.028;5.670;2022-09-21T18:51:42;16.00;97.90
27559;DHT22;15002;52.028;5.670;2022-09-21T18:54:19;15.90;98.10
27559;DHT22;15002;52.028;5.670;2022-09-21T18:56:46;15.90;98.10
27559;DHT22;15002;52.028;5.670;2022-09-21T18:59:12;15.80;98.10
27559;DHT22;15002;52.028;5.670;2022-09-21T19:01:39;15.80;98.00
27559;DHT22;15002;52.028;5.670;2022-09-21T19:04:05;15.70;97.80
27559;DHT22;15002;52.028;5.670;2022-09-21T19:09:21;15.60;98.10
27559;DHT22;15002;52.028;5.670;2022-09-21T19:22:29;15.20;98.70
27559;DHT22;15002;52.028;5.670;2022-09-21T19:25:14;15.20;98.90
27559;DHT22;15002;52.028;5.670;2022-09-21T19:27:48;15.20;98.90
27559;DHT22;15002;52.028;5.670;2022-09-21T19:30:17;15.20;99.10
27559;DHT22;15002;52.028;5.670;2022-09-21T19:32:50;15.20;99.10
27559;DHT22;15002;52.028;5.670;2022-09-21T19:35:30;15.20;99.10
27559;DHT22;15002;52.028;5.670;2022-09-21T19:37:59;15.10;99.50
27559;DHT22;15002;52.028;5.670;2022-09-21T19:40:28;15.00;99.30
27559;DHT22;15002;52.028;5.670;2022-09-21T19:48:04;15.00;99.70
27559;DHT22;15002;52.028;5.670;2022-09-21T19:50:41;14.90;99.70
27559;DHT22;15002;52.028;5.670;2022-09-21T19:53:11;14.80;99.80
27559;DHT22;15002;52.028;5.670;2022-09-21T19:55:57;14.80;99.80
27559;DHT22;15002;52.028;5.670;2022-09-21T19:58:42;14.70;99.90
27559;DHT22;15002;52.028;5.670;2022-09-21T20:01:27;14.70;99.80
27559;DHT22;15002;52.028;5.670;2022-09-21T20:03:53;14.70;99.90